sensor_id;sensor_type;location;lat;lon;timestamp;pressure;altitude;pressure_sealevel;temperature;humidity
9721;BME280;4899;42.644;23.366;2023-02-03T00:00:10;94430.06;;;2.37;100.00
9721;BME280;4899;42.644;23.366;2023-02-03T00:02:35;94423.91;;;2.12;100.00
9721;BME280;4899;42.644;23.366;2023-02-03T00:05:01;94433.09;;;2.24;100.00
9721;BME280;4899;42.644;23.366;2023-02-03T00:07:27;94439.19;;;2.38;100.00
9721;BME280;4899;42.644;23.366;2023-02-03T00:09:54;94438.41;;;2.27;100.00
9721;BME280;4899;42.644;23.366;2023-02-03T00:12:20;94440.69;;;2.24;100.00
9721;BME280;4899;42.644;23.366;2023-02-03T00:14:46;94442.47;;;2.23;100.00
9721;BME280;4899;42.644;23.366;2023-02-03T00:17:11;94453.31;;;2.08;100.00
9721;BME280;4899;42.644;23.366;2023-02-03T00:19:37;94448.00;;;2.10;100.00
9721;BME280;4899;42.644;23.366;2023-02-03T00:22:02;94443.53;;;1.80;100.00
9721;BME280;4899;42.644;23.366;2023-02-03T00:24:28;94461.50;;;1.73;100.00
9721;BME280;4899;42.644;23.366;2023-02-03T00:26:53;94450.03;;;1.66;100.00
9721;BME280;4899;42.644;23.366;2023-02-03T00:29:19;94442.41;;;1.61;100.00
9721;BME280;4899;42.644;23.366;2023-02-03T00:31:49;94451.06;;;1.70;100.00
9721;BME280;4899;42.644;23.366;2023-02-03T00:34:14;94449.50;;;1.59;100.00
9721;BME280;4899;42.644;23.366;2023-02-03T00:36:40;94454.31;;;1.60;100.00
9721;BME280;4899;42.644;23.366;2023-02-03T00:39:05;94451.78;;;1.60;100.00
9721;BME280;4899;42.644;23.366;2023-02-03T00:41:30;94452.78;;;1.54;100.00
9721;BME280;4899;42.644;23.366;2023-02-03T00:43:56;94459.88;;;1.52;100.00
9721;BME280;4899;42.644;23.366;2023-02-03T00:46:22;94463.19;;;1.58;100.00
9721;BME280;4899;42.644;23.366;2023-02-03T00:48:47;94458.13;;;1.58;100.00
9721;BME280;4899;42.644;23.366;2023-02-03T00:51:13;94473.31;;;1.58;100.00
9721;BME280;4899;42.644;23.366;2023-02-03T00:53:38;94459.34;;;1.50;100.00
9721;BME280;4899;42.644;23.366;2023-02-03T00:56:04;94455.56;;;1.52;100.00
9721;BME280;4899;42.644;23.366;2023-02-03T00:58:38;94466.50;;;1.58;100.00
9721;BME280;4899;42.644;23.366;2023-02-03T01:01:04;94478.94;;;1.65;100.00
9721;BME280;4899;42.644;23.366;2023-02-03T01:03:29;94466.72;;;1.57;100.00
9721;BME280;4899;42.644;23.366;2023-02-03T01:05:55;94465.97;;;1.56;100.00
9721;BME280;4899;42.644;23.366;2023-02-03T01:08:21;94501.44;;;1.56;100.00
9721;BME280;4899;42.644;23.366;2023-02-03T01:10:48;94477.34;;;1.53;100.00
9721;BME280;4899;42.644;23.366;2023-02-03T01:13:13;94503.72;;;1.52;100.00
9721;BME280;4899;42.644;23.366;2023-02-03T01:15:48;94486.16;;;1.46;100.00
9721;BME280;4899;42.644;23.366;2023-02-03T01:18:14;94480.81;;;1.42;100.00
9721;BME280;4899;42.644;23.366;2023-02-03T01:20:39;94483.31;;;1.37;100.00
9721;BME280;4899;42.644;23.366;2023-02-03T01:23:05;94480.00;;;1.32;100.00
9721;BME280;4899;42.644;23.366;2023-02-03T01:25:30;94494.91;;;1.28;100.00
9721;BME280;4899;42.644;23.366;2023-02-03T01:27:56;94478.72;;;1.34;100.00
9721;BME280;4899;42.644;23.366;2023-02-03T01:30:21;94467.09;;;1.38;100.00
9721;BME280;4899;42.644;23.366;2023-02-03T01:32:47;94467.09;;;1.38;100.00
9721;BME280;4899;42.644;23.366;2023-02-03T01:35:12;94466.03;;;1.29;100.00
9721;BME280;4899;42.644;23.366;2023-02-03T01:37:38;94477.97;;;1.34;100.00
9721;BME280;4899;42.644;23.366;2023-02-03T01:40:03;94473.91;;;1.33;100.00
9721;BME280;4899;42.644;23.366;2023-02-03T01:42:31;94486.06;;;1.31;100.00
9721;BME280;4899;42.644;23.366;2023-02-03T01:44:58;94502.03;;;1.31;100.00
9721;BME280;4899;42.644;23.366;2023-02-03T01:47:27;94495.34;;;1.20;100.00
9721;BME280;4899;42.644;23.366;2023-02-03T01:50:16;94501.50;;;1.29;100.00
9721;BME280;4899;42.644;23.366;2023-02-03T01:52:46;94518.75;;;1.32;100.00
9721;BME280;4899;42.644;23.366;2023-02-03T01:55:18;94500.75;;;1.29;100.00
9721;BME280;4899;42.644;23.366;2023-02-03T01:57:49;94496.44;;;1.29;100.00
9721;BME280;4899;42.644;23.366;2023-02-03T02:00:16;94506.06;;;1.27;100.00
9721;BME280;4899;42.644;23.366;2023-02-03T02:02:43;94511.81;;;1.22;100.00
9721;BME280;4899;42.644;23.366;2023-02-03T02:05:18;94501.69;;;1.22;100.00
9721;BME280;4899;42.644;23.366;2023-02-03T02:07:47;94523.69;;;1.17;100.00
9721;BME280;4899;42.644;23.366;2023-02-03T02:10:12;94512.03;;;1.16;100.00
9721;BME280;4899;42.644;23.366;2023-02-03T02:12:38;94509.06;;;1.24;100.00
9721;BME280;4899;42.644;23.366;2023-02-03T02:15:04;94512.13;;;1.26;100.00
9721;BME280;4899;42.644;23.366;2023-02-03T02:20:24;94515.34;;;1.21;100.00
9721;BME280;4899;42.644;23.366;2023-02-03T02:39:32;94525.38;;;1.38;100.00
9721;BME280;4899;42.644;23.366;2023-02-03T02:42:06;94534.47;;;1.34;100.00
9721;BME280;4899;42.644;23.366;2023-02-03T02:44:42;94535.44;;;1.28;100.00
9721;BME280;4899;42.644;23.366;2023-02-03T02:47:16;94533.44;;;1.30;100.00
9721;BME280;4899;42.644;23.366;2023-02-03T02:49:52;94532.44;;;1.31;100.00
9721;BME280;4899;42.644;23.366;2023-02-03T02:52:21;94524.34;;;1.34;100.00
9721;BME280;4899;42.644;23.366;2023-02-03T02:54:51;94532.94;;;1.33;100.00
9721;BME280;4899;42.644;23.366;2023-02-03T02:57:20;94512.13;;;1.26;100.00
9721;BME280;4899;42.644;23.366;2023-02-03T02:59:47;94534.19;;;1.31;100.00
9721;BME280;4899;42.644;23.366;2023-02-03T03:02:13;94529.78;;;1.21;100.00
9721;BME280;4899;42.644;23.366;2023-02-03T03:04:39;94534.19;;;1.31;100.00
9721;BME280;4899;42.644;23.366;2023-02-03T03:07:12;94548.78;;;1.18;100.00
9721;BME280;4899;42.644;23.366;2023-02-03T03:10:00;94547.06;;;1.24;100.00
9721;BME280;4899;42.644;23.366;2023-02-03T03:12:32;94575.88;;;1.18;100.00
9721;BME280;4899;42.644;23.366;2023-02-03T03:15:05;94524.97;;;1.19;100.00
9721;BME280;4899;42.644;23.366;2023-02-03T03:17:43;94528.03;;;1.21;100.00
9721;BME280;4899;42.644;23.366;2023-02-03T03:20:18;94569.88;;;1.24;100.00
9721;BME280;4899;42.644;23.366;2023-02-03T03:22:54;94554.66;;;1.24;100.00
9721;BME280;4899;42.644;23.366;2023-02-03T03:25:24;94548.16;;;1.33;100.00
9721;BME280;4899;42.644;23.366;2023-02-03T03:27:58;94598.72;;;1.23;100.00
9721;BME280;4899;42.644;23.366;2023-02-03T03:30:33;94535.38;;;1.23;100.00
9721;BME280;4899;42.644;23.366;2023-02-03T03:33:00;94522.25;;;1.26;100.00
9721;BME280;4899;42.644;23.366;2023-02-03T03:35:30;94534.41;;;1.24;100.00
9721;BME280;4899;42.644;23.366;2023-02-03T03:38:11;94562.28;;;1.24;100.00
9721;BME280;4899;42.644;23.366;2023-02-03T03:40:43;94618.97;;;1.23;100.00
9721;BME280;4899;42.644;23.366;2023-02-03T03:43:14;94567.88;;;1.26;100.00
9721;BME280;4899;42.644;23.366;2023-02-03T03:46:26;94566.63;;;1.29;100.00
9721;BME280;4899;42.644;23.366;2023-02-03T03:51:08;94586.34;;;1.27;100.00
9721;BME280;4899;42.644;23.366;2023-02-03T03:53:37;94581.56;;;1.30;100.00
9721;BME280;4899;42.644;23.366;2023-02-03T03:56:06;94592.97;;;1.28;100.00
9721;BME280;4899;42.644;23.366;2023-02-03T03:58:36;94559.50;;;1.26;100.00
9721;BME280;4899;42.644;23.366;2023-02-03T04:01:05;94563.56;;;1.27;100.00
9721;BME280;4899;42.644;23.366;2023-02-03T04:03:44;94572.16;;;1.26;100.00
9721;BME280;4899;42.644;23.366;2023-02-03T04:06:11;94573.22;;;1.30;100.00
9721;BME280;4899;42.644;23.366;2023-02-03T04:08:37;94582.88;;;1.33;100.00
9721;BME280;4899;42.644;23.366;2023-02-03T04:11:05;94576.03;;;1.33;100.00
9721;BME280;4899;42.644;23.366;2023-02-03T04:13:31;94586.13;;;1.28;100.00
9721;BME280;4899;42.644;23.366;2023-02-03T04:15:56;94592.66;;;1.24;100.00
9721;BME280;4899;42.644;23.366;2023-02-03T04:18:23;94578.66;;;1.16;100.00
9721;BME280;4899;42.644;23.366;2023-02-03T04:20:49;94591.84;;;1.18;100.00
9721;BME280;4899;42.644;23.366;2023-02-03T04:23:15;94586.47;;;1.15;100.00
9721;BME280;4899;42.644;23.366;2023-02-03T04:25:41;94606.75;;;1.15;100.00
9721;BME280;4899;42.644;23.366;2023-02-03T04:28:09;94623.94;;;1.13;100.00
9721;BME280;4899;42.644;23.366;2023-02-03T04:30:34;94607.31;;;1.22;100.00
9721;BME280;4899;42.644;23.366;2023-02-03T04:33:00;94613.16;;;1.22;100.00
9721;BME280;4899;42.644;23.366;2023-02-03T04:35:26;94607.16;;;1.29;100.00
9721;BME280;4899;42.644;23.366;2023-02-03T04:37:51;94616.03;;;1.31;100.00
9721;BME280;4899;42.644;23.366;2023-02-03T04:40:17;94618.56;;;1.31;100.00
9721;BME280;4899;42.644;23.366;2023-02-03T04:42:46;94627.69;;;1.32;100.00
9721;BME280;4899;42.644;23.366;2023-02-03T04:45:11;94635.75;;;1.24;100.00
9721;BME280;4899;42.644;23.366;2023-02-03T04:47:37;94637.03;;;1.27;100.00
9721;BME280;4899;42.644;23.366;2023-02-03T04:50:05;94637.03;;;1.27;100.00
9721;BME280;4899;42.644;23.366;2023-02-03T04:52:30;94632.19;;;1.25;100.00
9721;BME280;4899;42.644;23.366;2023-02-03T04:54:56;94638.47;;;1.22;100.00
9721;BME280;4899;42.644;23.366;2023-02-03T04:57:24;94628.59;;;1.21;100.00
9721;BME280;4899;42.644;23.366;2023-02-03T04:59:50;94632.59;;;1.17;100.00
9721;BME280;4899;42.644;23.366;2023-02-03T05:02:15;94638.81;;;1.26;100.00
9721;BME280;4899;42.644;23.366;2023-02-03T05:04:41;94644.63;;;1.27;100.00
9721;BME280;4899;42.644;23.366;2023-02-03T05:07:06;94649.94;;;1.25;100.00
9721;BME280;4899;42.644;23.366;2023-02-03T05:09:32;94654.75;;;1.27;100.00
9721;BME280;4899;42.644;23.366;2023-02-03T05:11:59;94659.50;;;1.23;100.00
9721;BME280;4899;42.644;23.366;2023-02-03T05:14:25;94656.78;;;1.25;100.00
9721;BME280;4899;42.644;23.366;2023-02-03T05:16:50;94660.59;;;1.27;100.00
9721;BME280;4899;42.644;23.366;2023-02-03T05:19:16;94656.69;;;1.19;100.00
9721;BME280;4899;42.644;23.366;2023-02-03T05:21:41;94661.84;;;1.25;100.00
9721;BME280;4899;42.644;23.366;2023-02-03T05:24:07;94699.59;;;1.26;100.00
9721;BME280;4899;42.644;23.366;2023-02-03T05:26:34;94674.28;;;1.26;100.00
9721;BME280;4899;42.644;23.366;2023-02-03T05:28:59;94677.63;;;1.32;100.00
9721;BME280;4899;42.644;23.366;2023-02-03T05:31:25;94654.94;;;1.20;100.00
9721;BME280;4899;42.644;23.366;2023-02-03T05:33:51;94676.81;;;1.26;100.00
9721;BME280;4899;42.644;23.366;2023-02-03T05:36:16;94684.41;;;1.26;100.00
9721;BME280;4899;42.644;23.366;2023-02-03T05:38:41;94672.41;;;1.21;100.00
9721;BME280;4899;42.644;23.366;2023-02-03T05:41:13;94673.91;;;1.17;100.00
9721;BME280;4899;42.644;23.366;2023-02-03T05:43:57;94668.00;;;1.12;100.00
9721;BME280;4899;42.644;23.366;2023-02-03T05:46:22;94686.47;;;1.07;100.00
9721;BME280;4899;42.644;23.366;2023-02-03T05:48:51;94672.97;;;1.02;100.00
9721;BME280;4899;42.644;23.366;2023-02-03T05:51:16;94683.63;;;1.04;100.00
9721;BME280;4899;42.644;23.366;2023-02-03T05:53:42;94677.13;;;0.91;100.00
9721;BME280;4899;42.644;23.366;2023-02-03T05:56:08;94682.50;;;0.95;100.00
9721;BME280;4899;42.644;23.366;2023-02-03T05:58:34;94669.78;;;0.89;100.00
9721;BME280;4899;42.644;23.366;2023-02-03T06:00:59;94698.22;;;0.97;100.00
9721;BME280;4899;42.644;23.366;2023-02-03T06:03:25;94696.44;;;0.97;100.00
9721;BME280;4899;42.644;23.366;2023-02-03T06:05:50;94695.25;;;1.00;100.00
9721;BME280;4899;42.644;23.366;2023-02-03T06:08:16;94691.72;;;1.01;100.00
9721;BME280;4899;42.644;23.366;2023-02-03T06:10:42;94700.06;;;1.01;100.00
9721;BME280;4899;42.644;23.366;2023-02-03T06:13:12;94686.09;;;0.99;100.00
9721;BME280;4899;42.644;23.366;2023-02-03T06:15:38;94712.41;;;0.98;100.00
9721;BME280;4899;42.644;23.366;2023-02-03T06:18:04;94725.69;;;1.05;100.00
9721;BME280;4899;42.644;23.366;2023-02-03T06:20:30;94697.81;;;1.05;100.00
9721;BME280;4899;42.644;23.366;2023-02-03T06:22:55;94702.25;;;1.14;100.00
9721;BME280;4899;42.644;23.366;2023-02-03T06:25:27;94695.41;;;1.15;100.00
9721;BME280;4899;42.644;23.366;2023-02-03T06:27:59;94705.47;;;1.10;100.00
9721;BME280;4899;42.644;23.366;2023-02-03T06:30:24;94705.13;;;1.23;100.00
9721;BME280;4899;42.644;23.366;2023-02-03T06:32:50;94747.22;;;1.24;100.00
9721;BME280;4899;42.644;23.366;2023-02-03T06:35:17;94732.59;;;1.31;100.00
9721;BME280;4899;42.644;23.366;2023-02-03T06:37:42;94719.97;;;1.36;100.00
9721;BME280;4899;42.644;23.366;2023-02-03T06:40:15;94723.03;;;1.38;100.00
9721;BME280;4899;42.644;23.366;2023-02-03T06:42:44;94745.38;;;1.41;100.00
9721;BME280;4899;42.644;23.366;2023-02-03T06:45:10;94741.13;;;1.47;100.00
9721;BME280;4899;42.644;23.366;2023-02-03T06:47:39;94739.91;;;1.49;100.00
9721;BME280;4899;42.644;23.366;2023-02-03T06:50:04;94728.22;;;1.48;100.00
9721;BME280;4899;42.644;23.366;2023-02-03T06:52:30;94744.03;;;1.56;100.00
9721;BME280;4899;42.644;23.366;2023-02-03T06:54:55;94754.25;;;1.66;100.00
9721;BME280;4899;42.644;23.366;2023-02-03T06:57:21;94729.91;;;1.65;100.00
9721;BME280;4899;42.644;23.366;2023-02-03T06:59:46;94781.38;;;1.65;100.00
9721;BME280;4899;42.644;23.366;2023-02-03T07:02:13;94716.47;;;1.64;100.00
9721;BME280;4899;42.644;23.366;2023-02-03T07:04:38;94749.75;;;1.73;100.00
9721;BME280;4899;42.644;23.366;2023-02-03T07:07:04;94754.53;;;1.69;100.00
9721;BME280;4899;42.644;23.366;2023-02-03T07:09:30;94733.88;;;1.77;100.00
9721;BME280;4899;42.644;23.366;2023-02-03T07:11:55;94711.41;;;1.64;100.00
9721;BME280;4899;42.644;23.366;2023-02-03T07:14:21;94706.09;;;1.66;100.00
9721;BME280;4899;42.644;23.366;2023-02-03T07:16:47;94720.91;;;1.74;100.00
9721;BME280;4899;42.644;23.366;2023-02-03T07:19:13;94729.59;;;1.83;100.00
9721;BME280;4899;42.644;23.366;2023-02-03T07:21:38;94757.16;;;1.74;100.00
9721;BME280;4899;42.644;23.366;2023-02-03T07:24:04;94744.41;;;1.69;100.00
9721;BME280;4899;42.644;23.366;2023-02-03T07:26:29;94711.88;;;1.88;100.00
9721;BME280;4899;42.644;23.366;2023-02-03T07:28:55;94709.75;;;1.75;100.00
9721;BME280;4899;42.644;23.366;2023-02-03T07:31:23;94741.34;;;1.94;100.00
9721;BME280;4899;42.644;23.366;2023-02-03T07:33:51;94732.94;;;1.89;100.00
9721;BME280;4899;42.644;23.366;2023-02-03T07:36:17;94725.00;;;2.07;100.00
9721;BME280;4899;42.644;23.366;2023-02-03T07:38:42;94742.28;;;2.10;100.00
9721;BME280;4899;42.644;23.366;2023-02-03T07:41:14;94749.13;;;2.09;100.00
9721;BME280;4899;42.644;23.366;2023-02-03T07:43:39;94781.09;;;2.10;100.00
9721;BME280;4899;42.644;23.366;2023-02-03T07:46:04;94751.69;;;2.14;100.00
9721;BME280;4899;42.644;23.366;2023-02-03T07:48:32;94765.06;;;2.32;100.00
9721;BME280;4899;42.644;23.366;2023-02-03T07:50:58;94765.09;;;2.37;100.00
9721;BME280;4899;42.644;23.366;2023-02-03T07:53:23;94756.50;;;2.43;100.00
9721;BME280;4899;42.644;23.366;2023-02-03T07:55:49;94775.66;;;2.24;100.00
9721;BME280;4899;42.644;23.366;2023-02-03T07:58:14;94779.28;;;2.33;100.00
9721;BME280;4899;42.644;23.366;2023-02-03T08:00:41;94752.38;;;2.32;100.00
9721;BME280;4899;42.644;23.366;2023-02-03T08:03:14;94762.56;;;2.37;100.00
9721;BME280;4899;42.644;23.366;2023-02-03T08:05:39;94783.63;;;2.37;100.00
9721;BME280;4899;42.644;23.366;2023-02-03T08:08:04;94780.72;;;2.24;100.00
9721;BME280;4899;42.644;23.366;2023-02-03T08:10:31;94774.56;;;2.46;100.00
9721;BME280;4899;42.644;23.366;2023-02-03T08:12:57;94763.09;;;2.44;100.00
9721;BME280;4899;42.644;23.366;2023-02-03T08:15:23;94775.38;;;2.52;100.00
9721;BME280;4899;42.644;23.366;2023-02-03T08:17:49;94774.34;;;2.48;100.00
9721;BME280;4899;42.644;23.366;2023-02-03T08:20:14;94815.16;;;2.46;100.00
9721;BME280;4899;42.644;23.366;2023-02-03T08:22:42;94794.59;;;2.43;100.00
9721;BME280;4899;42.644;23.366;2023-02-03T08:25:08;94795.03;;;2.35;100.00
9721;BME280;4899;42.644;23.366;2023-02-03T08:27:33;94789.44;;;2.33;100.00
9721;BME280;4899;42.644;23.366;2023-02-03T08:29:59;94804.59;;;2.55;100.00
9721;BME280;4899;42.644;23.366;2023-02-03T08:32:25;94812.53;;;2.63;100.00
9721;BME280;4899;42.644;23.366;2023-02-03T08:34:51;94791.69;;;2.61;100.00
9721;BME280;4899;42.644;23.366;2023-02-03T08:37:19;94802.00;;;2.82;100.00
9721;BME280;4899;42.644;23.366;2023-02-03T08:39:45;94779.78;;;2.67;100.00
9721;BME280;4899;42.644;23.366;2023-02-03T08:42:10;94808.84;;;2.76;99.41
9721;BME280;4899;42.644;23.366;2023-02-03T08:44:37;94828.28;;;2.65;99.21
9721;BME280;4899;42.644;23.366;2023-02-03T08:47:06;94805.47;;;2.70;97.60
9721;BME280;4899;42.644;23.366;2023-02-03T08:49:32;94821.88;;;2.90;99.10
9721;BME280;4899;42.644;23.366;2023-02-03T08:52:01;94808.41;;;2.89;97.02
9721;BME280;4899;42.644;23.366;2023-02-03T08:54:26;94827.44;;;2.87;97.59
9721;BME280;4899;42.644;23.366;2023-02-03T08:56:52;94846.84;;;2.98;97.18
9721;BME280;4899;42.644;23.366;2023-02-03T08:59:17;94826.94;;;2.90;97.17
9721;BME280;4899;42.644;23.366;2023-02-03T09:01:43;94812.25;;;2.97;100.00
9721;BME280;4899;42.644;23.366;2023-02-03T09:04:11;94817.94;;;3.09;100.00
9721;BME280;4899;42.644;23.366;2023-02-03T09:06:37;94809.91;;;3.22;100.00
9721;BME280;4899;42.644;23.366;2023-02-03T09:09:03;94815.44;;;3.14;100.00
9721;BME280;4899;42.644;23.366;2023-02-03T09:11:30;94839.56;;;3.12;98.81
9721;BME280;4899;42.644;23.366;2023-02-03T09:13:56;94811.44;;;3.23;99.90
9721;BME280;4899;42.644;23.366;2023-02-03T09:16:23;94790.38;;;3.33;100.00
9721;BME280;4899;42.644;23.366;2023-02-03T09:18:49;94803.31;;;2.89;100.00
9721;BME280;4899;42.644;23.366;2023-02-03T09:21:16;94812.44;;;3.22;100.00
9721;BME280;4899;42.644;23.366;2023-02-03T09:23:42;94788.97;;;3.10;100.00
9721;BME280;4899;42.644;23.366;2023-02-03T09:26:13;94797.06;;;3.02;100.00
9721;BME280;4899;42.644;23.366;2023-02-03T09:28:39;94780.78;;;2.98;100.00
9721;BME280;4899;42.644;23.366;2023-02-03T09:31:10;94776.25;;;3.05;100.00
9721;BME280;4899;42.644;23.366;2023-02-03T09:33:38;94783.25;;;3.30;100.00
9721;BME280;4899;42.644;23.366;2023-02-03T09:36:04;94777.03;;;3.63;100.00
9721;BME280;4899;42.644;23.366;2023-02-03T09:38:31;94788.88;;;3.37;100.00
9721;BME280;4899;42.644;23.366;2023-02-03T09:43:39;94793.28;;;3.52;100.00
9721;BME280;4899;42.644;23.366;2023-02-03T09:46:11;94799.44;;;3.71;100.00
9721;BME280;4899;42.644;23.366;2023-02-03T09:48:53;94786.66;;;3.56;94.57
9721;BME280;4899;42.644;23.366;2023-02-03T09:54:52;94785.81;;;3.97;93.30
9721;BME280;4899;42.644;23.366;2023-02-03T09:57:24;94779.09;;;3.71;83.77
9721;BME280;4899;42.644;23.366;2023-02-03T09:59:51;94783.50;;;3.28;81.29
9721;BME280;4899;42.644;23.366;2023-02-03T10:19:12;94794.19;;;3.30;81.20
9721;BME280;4899;42.644;23.366;2023-02-03T10:21:50;94771.81;;;3.27;83.25
9721;BME280;4899;42.644;23.366;2023-02-03T10:24:42;94797.72;;;3.29;80.44
9721;BME280;4899;42.644;23.366;2023-02-03T10:27:16;94777.91;;;3.31;83.96
9721;BME280;4899;42.644;23.366;2023-02-03T10:29:43;94760.13;;;3.36;87.93
9721;BME280;4899;42.644;23.366;2023-02-03T10:32:10;94757.13;;;3.45;84.89
9721;BME280;4899;42.644;23.366;2023-02-03T10:34:37;94785.19;;;3.70;84.56
9721;BME280;4899;42.644;23.366;2023-02-03T10:37:20;94749.56;;;3.70;78.06
9721;BME280;4899;42.644;23.366;2023-02-03T10:39:50;94804.41;;;4.08;78.92
9721;BME280;4899;42.644;23.366;2023-02-03T10:42:16;94797.06;;;4.22;75.27
9721;BME280;4899;42.644;23.366;2023-02-03T10:44:50;94765.22;;;4.19;69.14
9721;BME280;4899;42.644;23.366;2023-02-03T10:47:38;94815.84;;;4.06;69.65
9721;BME280;4899;42.644;23.366;2023-02-03T10:50:13;94768.22;;;3.91;72.35
9721;BME280;4899;42.644;23.366;2023-02-03T10:52:43;94762.13;;;3.97;72.64
9721;BME280;4899;42.644;23.366;2023-02-03T10:57:51;94777.88;;;3.94;74.37
9721;BME280;4899;42.644;23.366;2023-02-03T11:00:23;94772.78;;;3.84;72.97
9721;BME280;4899;42.644;23.366;2023-02-03T11:03:05;94783.19;;;3.72;68.78
9721;BME280;4899;42.644;23.366;2023-02-03T11:05:31;94768.63;;;3.57;72.24
9721;BME280;4899;42.644;23.366;2023-02-03T11:07:56;94776.53;;;3.66;63.72
9721;BME280;4899;42.644;23.366;2023-02-03T11:13:21;94765.41;;;3.82;59.00
9721;BME280;4899;42.644;23.366;2023-02-03T11:15:55;94787.84;;;4.00;59.79
9721;BME280;4899;42.644;23.366;2023-02-03T11:18:45;94776.69;;;4.22;61.19
9721;BME280;4899;42.644;23.366;2023-02-03T11:21:12;94761.91;;;4.44;61.26
9721;BME280;4899;42.644;23.366;2023-02-03T11:24:16;94774.16;;;4.62;59.66
9721;BME280;4899;42.644;23.366;2023-02-03T11:26:47;94777.97;;;4.40;58.88
9721;BME280;4899;42.644;23.366;2023-02-03T11:29:39;94747.38;;;4.14;58.86
9721;BME280;4899;42.644;23.366;2023-02-03T11:35:12;94737.66;;;3.86;58.11
9721;BME280;4899;42.644;23.366;2023-02-03T11:37:51;94736.41;;;3.83;58.52
9721;BME280;4899;42.644;23.366;2023-02-03T11:52:03;94707.41;;;4.76;55.06
9721;BME280;4899;42.644;23.366;2023-02-03T11:54:05;94724.13;;;5.12;55.30
9721;BME280;4899;42.644;23.366;2023-02-03T11:59:50;94698.16;;;5.05;54.17
9721;BME280;4899;42.644;23.366;2023-02-03T12:21:46;94761.41;;;6.95;46.02
9721;BME280;4899;42.644;23.366;2023-02-03T12:24:35;94730.63;;;6.08;45.70
9721;BME280;4899;42.644;23.366;2023-02-03T12:27:29;94760.31;;;6.38;45.81
9721;BME280;4899;42.644;23.366;2023-02-03T12:30:04;94733.31;;;5.13;46.77
9721;BME280;4899;42.644;23.366;2023-02-03T12:32:39;94746.13;;;4.68;48.22
9721;BME280;4899;42.644;23.366;2023-02-03T12:40:23;94703.31;;;5.54;47.77
9721;BME280;4899;42.644;23.366;2023-02-03T12:42:56;94681.16;;;6.33;46.74
9721;BME280;4899;42.644;23.366;2023-02-03T12:45:28;94708.94;;;6.98;46.05
9721;BME280;4899;42.644;23.366;2023-02-03T12:47:55;94725.88;;;6.31;46.37
9721;BME280;4899;42.644;23.366;2023-02-03T12:50:34;94708.47;;;6.91;45.49
9721;BME280;4899;42.644;23.366;2023-02-03T12:55:45;94728.38;;;7.65;44.76
9721;BME280;4899;42.644;23.366;2023-02-03T12:59:41;94729.72;;;7.82;44.65
9721;BME280;4899;42.644;23.366;2023-02-03T13:01:47;94705.03;;;8.42;45.09
9721;BME280;4899;42.644;23.366;2023-02-03T13:04:34;94680.88;;;8.48;43.28
9721;BME280;4899;42.644;23.366;2023-02-03T13:07:11;94696.91;;;8.02;43.92
9721;BME280;4899;42.644;23.366;2023-02-03T13:09:46;94688.97;;;8.18;44.49
9721;BME280;4899;42.644;23.366;2023-02-03T13:15:24;94697.66;;;8.03;44.60
9721;BME280;4899;42.644;23.366;2023-02-03T13:20:44;94683.56;;;7.25;46.56
9721;BME280;4899;42.644;23.366;2023-02-03T13:23:13;94686.59;;;7.51;46.31
9721;BME280;4899;42.644;23.366;2023-02-03T13:39:15;94687.13;;;5.20;52.84
9721;BME280;4899;42.644;23.366;2023-02-03T13:44:13;94689.56;;;6.92;48.93
9721;BME280;4899;42.644;23.366;2023-02-03T13:46:41;94679.59;;;7.57;48.17
9721;BME280;4899;42.644;23.366;2023-02-03T13:49:07;94681.03;;;8.19;47.75
9721;BME280;4899;42.644;23.366;2023-02-03T13:51:42;94696.22;;;7.78;47.33
9721;BME280;4899;42.644;23.366;2023-02-03T13:54:18;94684.50;;;7.53;47.06
9721;BME280;4899;42.644;23.366;2023-02-03T13:56:57;94688.59;;;5.85;50.47
9721;BME280;4899;42.644;23.366;2023-02-03T13:59:40;94687.41;;;5.23;51.44
9721;BME280;4899;42.644;23.366;2023-02-03T14:05:43;94701.31;;;4.72;54.20
9721;BME280;4899;42.644;23.366;2023-02-03T14:17:03;94701.56;;;7.39;48.88
9721;BME280;4899;42.644;23.366;2023-02-03T14:22:04;94693.78;;;7.87;48.27
9721;BME280;4899;42.644;23.366;2023-02-03T14:24:33;94676.81;;;8.61;48.97
9721;BME280;4899;42.644;23.366;2023-02-03T14:27:01;94668.16;;;8.24;47.48
9721;BME280;4899;42.644;23.366;2023-02-03T14:29:30;94684.59;;;7.48;49.26
9721;BME280;4899;42.644;23.366;2023-02-03T14:32:04;94666.88;;;5.88;51.02
9721;BME280;4899;42.644;23.366;2023-02-03T14:34:42;94671.06;;;5.24;52.45
9721;BME280;4899;42.644;23.366;2023-02-03T14:37:27;94683.44;;;4.67;53.85
9721;BME280;4899;42.644;23.366;2023-02-03T14:55:00;94669.56;;;3.20;60.97
9721;BME280;4899;42.644;23.366;2023-02-03T14:57:48;94672.38;;;3.19;59.83
9721;BME280;4899;42.644;23.366;2023-02-03T15:03:18;94660.41;;;3.09;59.76
9721;BME280;4899;42.644;23.366;2023-02-03T15:05:49;94661.91;;;3.05;60.64
9721;BME280;4899;42.644;23.366;2023-02-03T15:08:41;94649.69;;;3.02;61.12
9721;BME280;4899;42.644;23.366;2023-02-03T15:11:22;94637.94;;;2.91;62.78
9721;BME280;4899;42.644;23.366;2023-02-03T15:13:48;94613.81;;;2.83;64.23
9721;BME280;4899;42.644;23.366;2023-02-03T15:16:18;94616.09;;;2.85;63.61
9721;BME280;4899;42.644;23.366;2023-02-03T15:18:44;94620.13;;;2.81;64.61
9721;BME280;4899;42.644;23.366;2023-02-03T15:21:18;94613.03;;;2.83;63.46
9721;BME280;4899;42.644;23.366;2023-02-03T15:23:47;94605.94;;;2.90;63.55
9721;BME280;4899;42.644;23.366;2023-02-03T15:26:21;94606.16;;;2.73;63.80
9721;BME280;4899;42.644;23.366;2023-02-03T15:31:32;94598.47;;;2.68;64.01
9721;BME280;4899;42.644;23.366;2023-02-03T15:34:38;94598.78;;;2.76;61.86
9721;BME280;4899;42.644;23.366;2023-02-03T15:37:09;94599.97;;;2.54;63.20
9721;BME280;4899;42.644;23.366;2023-02-03T15:42:17;94585.16;;;2.45;60.09
9721;BME280;4899;42.644;23.366;2023-02-03T15:45:16;94589.81;;;2.54;59.04
9721;BME280;4899;42.644;23.366;2023-02-03T15:47:40;94588.56;;;2.61;58.34
9721;BME280;4899;42.644;23.366;2023-02-03T15:50:32;94587.25;;;2.54;57.70
9721;BME280;4899;42.644;23.366;2023-02-03T15:53:26;94582.63;;;2.40;57.93
9721;BME280;4899;42.644;23.366;2023-02-03T15:55:54;94582.88;;;2.44;57.61
9721;BME280;4899;42.644;23.366;2023-02-03T15:58:25;94581.69;;;2.57;57.26
9721;BME280;4899;42.644;23.366;2023-02-03T16:00:56;94584.72;;;2.49;57.86
9721;BME280;4899;42.644;23.366;2023-02-03T16:03:39;94574.75;;;2.42;59.16